Time;durP1;ratioP1;P1;durP2;ratioP2;P2;SDS_P1;SDS_P2;PMS_P1;PMS_P2;Temp;Humidity;BMP_temperature;BMP_pressure;BME280_temperature;BME280_humidity;BME280_pressure;Samples;Min_cycle;Max_cycle;Signal;HPM_P1;HPM_P2
2022/11/13 00:02:04;;;;;;;10.93;7.47;;;8.30;99.90;;;;;;7390902;19;20165;-76
2022/11/13 00:04:30;;;;;;;10.13;7.00;;;8.10;99.90;;;;;;7389068;19;20138;-78
2022/11/13 00:06:56;;;;;;;12.40;7.43;;;8.00;99.90;;;;;;7388577;19;20135;-76
2022/11/13 00:09:21;;;;;;;11.17;7.67;;;7.90;99.90;;;;;;7389339;19;20150;-76
2022/11/13 00:11:47;;;;;;;8.10;6.33;;;7.80;99.90;;;;;;7390975;19;20182;-76
2022/11/13 00:14:13;;;;;;;10.07;6.50;;;7.70;99.90;;;;;;7390549;19;21002;-76
2022/11/13 00:16:39;;;;;;;13.20;8.53;;;7.80;99.90;;;;;;7389034;19;20159;-78
2022/11/13 00:19:05;;;;;;;13.13;8.77;;;8.20;99.90;;;;;;7389519;19;20213;-78
2022/11/13 00:21:30;;;;;;;10.47;7.43;;;8.50;99.90;;;;;;7388549;19;20154;-77
2022/11/13 00:23:56;;;;;;;9.27;6.80;;;8.50;99.90;;;;;;7389902;19;20138;-76
2022/11/13 00:26:27;;;;;;;10.87;7.30;;;8.50;99.90;;;;;;7388264;19;20516;-75
2022/11/13 00:28:56;;;;;;;12.30;7.50;;;8.70;99.90;;;;;;7387708;19;20158;-78
2022/11/13 00:31:22;;;;;;;12.63;8.37;;;8.70;99.90;;;;;;7387899;19;20146;-76
2022/11/13 00:33:48;;;;;;;10.83;7.70;;;8.60;99.90;;;;;;7387049;19;20489;-74
2022/11/13 00:36:19;;;;;;;12.77;7.93;;;8.60;99.90;;;;;;7385563;19;20145;-76
2022/11/13 00:38:46;;;;;;;11.77;8.30;;;8.60;99.90;;;;;;7386452;19;20646;-76
2022/11/13 00:41:11;;;;;;;12.60;9.10;;;8.60;99.90;;;;;;7387922;19;20150;-76
2022/11/13 00:43:38;;;;;;;11.63;7.97;;;8.70;99.90;;;;;;7387674;19;20159;-76
2022/11/13 00:46:06;;;;;;;11.43;8.47;;;8.70;99.90;;;;;;7390246;19;20202;-77
2022/11/13 00:48:31;;;;;;;13.07;8.43;;;8.70;99.90;;;;;;7386561;19;20178;-77
2022/11/13 00:50:57;;;;;;;13.87;9.37;;;8.70;99.90;;;;;;7389101;19;20135;-77
2022/11/13 00:53:23;;;;;;;11.13;7.80;;;8.80;99.90;;;;;;7389363;19;20168;-77
2022/11/13 00:55:49;;;;;;;11.67;7.60;;;8.50;99.90;;;;;;7387323;19;20733;-76
2022/11/13 00:58:15;;;;;;;11.60;7.80;;;8.60;99.90;;;;;;7384713;19;20184;-76
2022/11/13 01:00:43;;;;;;;10.07;7.70;;;8.60;99.90;;;;;;7386431;19;20138;-76
2022/11/13 01:03:10;;;;;;;9.97;7.17;;;8.50;99.90;;;;;;7385561;19;20162;-76
2022/11/13 01:05:37;;;;;;;9.77;6.90;;;8.20;99.90;;;;;;7388010;19;20142;-77
2022/11/13 01:08:04;;;;;;;12.87;8.20;;;7.30;99.90;;;;;;7386682;19;20733;-76
2022/11/13 01:10:30;;;;;;;12.10;7.70;;;7.40;99.90;;;;;;7388068;19;20167;-77
2022/11/13 01:12:56;;;;;;;12.03;8.07;;;7.70;99.90;;;;;;7385721;19;20169;-77
2022/11/13 01:15:22;;;;;;;12.33;7.53;;;8.10;99.90;;;;;;7386583;19;20158;-76
2022/11/13 01:17:47;;;;;;;12.13;7.67;;;8.20;99.90;;;;;;7387513;19;20154;-75
2022/11/13 01:20:13;;;;;;;11.97;7.67;;;8.20;99.90;;;;;;7387039;19;20650;-75
2022/11/13 01:22:39;;;;;;;9.90;7.67;;;8.30;99.90;;;;;;7384871;19;20210;-77
2022/11/13 01:25:05;;;;;;;10.77;6.97;;;8.30;99.90;;;;;;7387622;19;20138;-76
2022/11/13 01:27:31;;;;;;;11.30;7.40;;;8.30;99.90;;;;;;7388670;19;20874;-77
2022/11/13 01:29:56;;;;;;;11.30;7.73;;;8.30;99.90;;;;;;7389940;19;20138;-76
2022/11/13 01:32:22;;;;;;;12.37;7.60;;;8.30;99.90;;;;;;7388905;19;20138;-75
2022/11/13 01:34:48;;;;;;;11.17;7.83;;;8.30;99.90;;;;;;7386615;19;20664;-75
2022/11/13 01:37:14;;;;;;;11.33;8.43;;;8.20;99.90;;;;;;7384409;19;20141;-76
2022/11/13 01:39:39;;;;;;;13.53;8.37;;;8.00;99.90;;;;;;7386728;19;20146;-75
2022/11/13 01:42:05;;;;;;;13.37;7.67;;;8.00;99.90;;;;;;7384251;19;20135;-76
2022/11/13 01:44:53;;;;;;;12.30;8.37;;;8.00;99.90;;;;;;7387551;19;20130;-77
2022/11/13 01:47:20;;;;;;;8.97;7.13;;;7.90;99.90;;;;;;7388109;19;20139;-76
2022/11/13 01:49:48;;;;;;;8.40;6.17;;;7.90;99.90;;;;;;7384982;19;20537;-77
2022/11/13 01:52:27;;;;;;;11.20;7.40;;;7.80;99.90;;;;;;7386373;19;20143;-75
2022/11/13 01:54:58;;;;;;;10.17;6.97;;;7.80;99.90;;;;;;7386370;19;20154;-76
2022/11/13 01:57:24;;;;;;;9.60;6.87;;;7.70;99.90;;;;;;7386675;19;20147;-76
2022/11/13 02:00:00;;;;;;;10.73;7.40;;;7.70;99.90;;;;;;7384325;19;20143;-75
2022/11/13 02:02:26;;;;;;;10.73;7.07;;;7.70;99.90;;;;;;7385822;19;20142;-75
2022/11/13 02:04:52;;;;;;;8.20;6.63;;;7.70;99.90;;;;;;7385952;19;20206;-76
2022/11/13 02:07:20;;;;;;;9.40;6.73;;;7.60;99.90;;;;;;7385707;19;20679;-75
2022/11/13 02:09:49;;;;;;;9.57;7.30;;;7.60;99.90;;;;;;7387532;19;20142;-76
2022/11/13 02:12:31;;;;;;;9.70;7.37;;;7.30;99.90;;;;;;7386016;19;20265;-77
2022/11/13 02:14:59;;;;;;;9.17;6.70;;;7.50;99.90;;;;;;7384241;19;20183;-76
2022/11/13 02:17:53;;;;;;;9.87;6.93;;;7.40;99.90;;;;;;7385314;19;20174;-76
2022/11/13 02:20:31;;;;;;;9.80;6.90;;;7.50;99.90;;;;;;7384281;19;20146;-76
2022/11/13 02:23:23;;;;;;;9.53;6.97;;;7.40;99.90;;;;;;7383644;19;20691;-75
2022/11/13 02:25:52;;;;;;;13.30;6.70;;;6.70;99.90;;;;;;7386367;19;20126;-76
2022/11/13 02:28:18;;;;;;;8.87;6.57;;;5.90;99.90;;;;;;7385071;19;20138;-76
2022/11/13 02:30:44;;;;;;;9.23;6.93;;;6.00;99.90;;;;;;7384991;19;20142;-76
2022/11/13 02:33:26;;;;;;;10.23;6.83;;;6.60;99.90;;;;;;7387230;19;20141;-76
2022/11/13 02:35:52;;;;;;;10.87;7.10;;;6.60;99.90;;;;;;7387720;19;20723;-77
2022/11/13 02:38:18;;;;;;;8.33;6.37;;;6.80;99.90;;;;;;7384921;19;20167;-76
2022/11/13 02:40:43;;;;;;;8.37;5.90;;;7.00;99.90;;;;;;7380877;19;20146;-76
2022/11/13 02:43:09;;;;;;;8.73;6.50;;;7.20;99.90;;;;;;7382726;19;20119;-77
2022/11/13 02:45:37;;;;;;;7.93;6.23;;;7.30;99.90;;;;;;7385965;19;20142;-77
2022/11/13 02:48:04;;;;;;;10.17;6.80;;;7.30;99.90;;;;;;7385668;19;20157;-76
2022/11/13 02:50:30;;;;;;;8.73;5.93;;;6.80;99.90;;;;;;7386467;19;20149;-76
2022/11/13 02:52:56;;;;;;;9.07;6.97;;;7.00;99.90;;;;;;7385620;19;20507;-76
2022/11/13 02:55:22;;;;;;;8.90;6.40;;;6.00;99.90;;;;;;7384204;19;20214;-77
2022/11/13 02:57:47;;;;;;;8.70;6.67;;;6.40;99.90;;;;;;7380592;19;20935;-77
2022/11/13 03:00:13;;;;;;;8.67;6.33;;;6.70;99.90;;;;;;7386090;19;20478;-76
2022/11/13 03:02:40;;;;;;;8.27;6.17;;;6.80;99.90;;;;;;7389280;19;21009;-76
2022/11/13 03:05:06;;;;;;;11.07;7.20;;;6.90;99.90;;;;;;7390209;19;20160;-76
2022/11/13 03:07:32;;;;;;;9.63;7.07;;;6.80;99.90;;;;;;7392350;19;20138;-76
2022/11/13 03:09:58;;;;;;;8.70;6.63;;;6.30;99.90;;;;;;7389974;19;20760;-77
2022/11/13 03:12:23;;;;;;;10.27;6.50;;;6.00;99.90;;;;;;7390896;19;20134;-75
2022/11/13 03:14:49;;;;;;;9.90;6.60;;;5.70;99.90;;;;;;7391333;19;20179;-76
2022/11/13 03:17:15;;;;;;;9.73;6.97;;;6.10;99.90;;;;;;7392838;19;20580;-78
2022/11/13 03:19:40;;;;;;;8.83;6.67;;;6.40;99.90;;;;;;7390360;19;20609;-75
2022/11/13 03:22:06;;;;;;;11.50;7.00;;;6.40;99.90;;;;;;7391537;19;20164;-76
2022/11/13 03:24:32;;;;;;;10.17;7.30;;;6.60;99.90;;;;;;7392047;19;20206;-76
2022/11/13 03:26:58;;;;;;;10.43;7.60;;;6.80;99.90;;;;;;7388488;19;20135;-77
2022/11/13 03:29:23;;;;;;;9.23;6.73;;;6.80;99.90;;;;;;7392431;19;20139;-76
2022/11/13 03:31:49;;;;;;;10.17;6.90;;;6.80;99.90;;;;;;7390593;19;20139;-75
2022/11/13 03:34:15;;;;;;;9.87;6.67;;;6.60;99.90;;;;;;7392885;19;20134;-76
2022/11/13 03:36:40;;;;;;;9.80;7.03;;;6.70;99.90;;;;;;7386879;19;20131;-76
2022/11/13 03:39:06;;;;;;;9.17;6.87;;;7.00;99.90;;;;;;7389321;19;20174;-76
2022/11/13 03:41:32;;;;;;;12.33;6.97;;;7.00;99.90;;;;;;7388453;19;20485;-76
2022/11/13 03:43:57;;;;;;;10.90;7.70;;;6.50;99.90;;;;;;7394888;19;20592;-76
2022/11/13 03:46:23;;;;;;;11.40;6.67;;;6.50;99.90;;;;;;7393991;19;20154;-76
2022/11/13 03:48:49;;;;;;;10.57;7.33;;;6.30;99.90;;;;;;7387141;19;20914;-74
2022/11/13 03:51:14;;;;;;;8.97;6.93;;;5.90;99.90;;;;;;7394888;19;20147;-72
2022/11/13 03:53:41;;;;;;;9.87;7.33;;;5.60;99.90;;;;;;7393957;19;20235;-74
2022/11/13 03:56:07;;;;;;;11.23;7.37;;;6.10;99.90;;;;;;7392103;19;20131;-73
2022/11/13 03:58:32;;;;;;;10.73;7.33;;;6.40;99.90;;;;;;7383715;19;20175;-74
2022/11/13 04:00:58;;;;;;;11.17;7.67;;;5.90;99.90;;;;;;7392449;19;20146;-73
2022/11/13 04:03:24;;;;;;;10.70;7.60;;;6.10;99.90;;;;;;7389815;19;20619;-74
2022/11/13 04:05:50;;;;;;;11.33;7.33;;;6.40;99.90;;;;;;7393334;19;20156;-74
2022/11/13 04:08:16;;;;;;;12.00;7.57;;;6.60;99.90;;;;;;7392983;19;20139;-74
2022/11/13 04:10:43;;;;;;;10.47;7.50;;;6.20;99.90;;;;;;7388267;19;20151;-73
2022/11/13 04:13:09;;;;;;;11.57;7.37;;;6.20;99.90;;;;;;7386627;19;20142;-74
2022/11/13 04:15:35;;;;;;;12.03;8.00;;;6.20;99.90;;;;;;7391711;19;20211;-73
2022/11/13 04:18:01;;;;;;;12.37;7.97;;;6.50;99.90;;;;;;7387835;19;20150;-74
2022/11/13 04:20:26;;;;;;;9.97;7.27;;;6.60;99.90;;;;;;7388551;19;20158;-74
2022/11/13 04:22:53;;;;;;;10.87;7.60;;;6.80;99.90;;;;;;7386907;19;20607;-73
2022/11/13 04:25:19;;;;;;;11.73;7.97;;;7.00;99.90;;;;;;7391573;19;20139;-74
2022/11/13 04:27:45;;;;;;;10.97;7.77;;;7.10;99.90;;;;;;7390957;19;20143;-74
2022/11/13 04:30:10;;;;;;;12.03;7.83;;;7.20;99.90;;;;;;7390438;19;20126;-73
2022/11/13 04:32:36;;;;;;;13.03;8.60;;;7.20;99.90;;;;;;7387217;19;20175;-73
2022/11/13 04:35:02;;;;;;;9.60;7.33;;;7.20;99.90;;;;;;7387563;19;20886;-74
2022/11/13 04:37:28;;;;;;;11.20;7.53;;;7.20;99.90;;;;;;7389082;19;20148;-73
2022/11/13 04:39:53;;;;;;;10.60;7.53;;;7.30;99.90;;;;;;7391227;19;20617;-74
2022/11/13 04:45:04;;;;;;;11.77;8.47;;;7.20;99.90;;;;;;7387881;19;20171;-73
2022/11/13 04:47:29;;;;;;;10.37;7.47;;;7.20;99.90;;;;;;7387960;19;20511;-74
2022/11/13 04:49:55;;;;;;;12.37;7.60;;;7.20;99.90;;;;;;7389794;19;20164;-73
2022/11/13 04:52:21;;;;;;;11.53;7.57;;;7.40;99.90;;;;;;7387134;19;20143;-75
2022/11/13 04:54:47;;;;;;;12.33;8.07;;;7.30;99.90;;;;;;7387051;19;20512;-73
2022/11/13 04:57:12;;;;;;;11.97;7.40;;;6.90;99.90;;;;;;7387242;19;20182;-74
2022/11/13 04:59:38;;;;;;;11.70;7.77;;;7.00;99.90;;;;;;7388419;19;20621;-73
2022/11/13 05:02:04;;;;;;;14.17;8.77;;;7.20;99.90;;;;;;7389023;19;20229;-74
2022/11/13 05:04:29;;;;;;;10.47;7.50;;;7.20;99.90;;;;;;7386533;19;20142;-73
2022/11/13 05:06:55;;;;;;;12.43;8.53;;;7.20;99.90;;;;;;7386047;19;20174;-74
2022/11/13 05:09:21;;;;;;;11.27;7.67;;;7.20;99.90;;;;;;7387808;19;20143;-73
2022/11/13 05:11:47;;;;;;;11.23;7.63;;;7.20;99.90;;;;;;7387560;19;20145;-74
2022/11/13 05:14:12;;;;;;;11.20;7.23;;;7.30;99.90;;;;;;7386430;19;20151;-74
2022/11/13 05:16:38;;;;;;;11.33;7.67;;;7.20;99.90;;;;;;7386595;19;20142;-74
2022/11/13 05:19:05;;;;;;;10.90;7.57;;;7.30;99.90;;;;;;7390254;19;20145;-74
2022/11/13 05:21:33;;;;;;;9.83;7.13;;;7.30;99.90;;;;;;7388642;19;20146;-75
2022/11/13 05:23:58;;;;;;;10.97;7.77;;;7.30;99.90;;;;;;7385025;19;20143;-73
2022/11/13 05:26:25;;;;;;;10.40;7.63;;;7.30;99.90;;;;;;7388069;19;20144;-73
2022/11/13 05:28:51;;;;;;;9.70;7.40;;;7.40;99.90;;;;;;7384675;19;20135;-73
2022/11/13 05:31:17;;;;;;;12.50;8.17;;;7.30;99.90;;;;;;7385769;19;20198;-74
2022/11/13 05:33:43;;;;;;;12.00;7.97;;;7.20;99.90;;;;;;7388022;19;20202;-74
2022/11/13 05:36:12;;;;;;;11.33;7.90;;;7.20;99.90;;;;;;7387227;19;20149;-74
2022/11/13 05:38:38;;;;;;;11.20;7.97;;;7.20;99.90;;;;;;7387533;19;20648;-73
2022/11/13 05:41:14;;;;;;;12.30;7.70;;;7.20;99.90;;;;;;7387311;19;20153;-74
2022/11/13 05:43:41;;;;;;;12.57;8.17;;;7.20;99.90;;;;;;7383772;19;20488;-74
2022/11/13 05:46:14;;;;;;;11.77;8.30;;;7.10;99.90;;;;;;7387002;19;20139;-75
2022/11/13 05:48:41;;;;;;;10.33;7.23;;;7.10;99.90;;;;;;7387426;19;20142;-74
2022/11/13 05:51:13;;;;;;;12.77;6.97;;;7.00;99.90;;;;;;7387784;19;20130;-74
2022/11/13 05:53:40;;;;;;;12.47;7.53;;;7.00;99.90;;;;;;7388229;19;20599;-74
2022/11/13 05:56:18;;;;;;;10.87;6.33;;;7.00;99.90;;;;;;7387647;19;20212;-74
2022/11/13 05:58:44;;;;;;;12.17;6.77;;;6.50;99.90;;;;;;7387373;19;20130;-74
2022/11/13 06:01:16;;;;;;;9.47;6.30;;;6.50;99.90;;;;;;7386080;19;20158;-74
2022/11/13 06:03:43;;;;;;;9.63;6.30;;;6.60;99.90;;;;;;7383630;19;20161;-74
2022/11/13 06:06:14;;;;;;;8.77;6.60;;;6.80;99.90;;;;;;7386220;19;20179;-74
2022/11/13 06:08:40;;;;;;;8.67;6.63;;;6.80;99.90;;;;;;7384857;19;20143;-74
2022/11/13 06:11:08;;;;;;;8.37;6.37;;;6.90;99.90;;;;;;7385914;19;20983;-73
2022/11/13 06:13:34;;;;;;;7.60;6.03;;;6.90;99.90;;;;;;7385272;19;20260;-74
2022/11/13 06:16:15;;;;;;;7.97;5.80;;;6.90;99.90;;;;;;7385393;19;20264;-73
2022/11/13 06:18:42;;;;;;;8.17;6.20;;;6.90;99.90;;;;;;7381826;19;20864;-73
2022/11/13 06:21:11;;;;;;;7.87;5.70;;;6.80;99.90;;;;;;7387516;19;20127;-74
2022/11/13 06:23:39;;;;;;;7.13;5.07;;;6.80;99.90;;;;;;7382701;19;20629;-73
2022/11/13 06:26:14;;;;;;;7.23;5.13;;;6.90;99.90;;;;;;7385877;19;20135;-74
2022/11/13 06:28:43;;;;;;;6.57;5.03;;;7.00;99.90;;;;;;7384907;19;20167;-74
2022/11/13 06:31:11;;;;;;;6.47;4.77;;;6.60;99.90;;;;;;7384377;19;20644;-73
2022/11/13 06:33:38;;;;;;;6.73;5.17;;;6.70;99.90;;;;;;7387201;19;20145;-75
2022/11/13 06:36:06;;;;;;;6.50;4.63;;;6.80;99.90;;;;;;7390719;19;20508;-74
2022/11/13 06:38:33;;;;;;;6.97;5.10;;;6.80;99.90;;;;;;7393348;19;20138;-74
2022/11/13 06:40:59;;;;;;;9.13;5.57;;;6.70;99.90;;;;;;7394014;19;20178;-74
2022/11/13 06:43:26;;;;;;;6.30;5.03;;;6.60;99.90;;;;;;7390240;19;20139;-73
2022/11/13 06:45:53;;;;;;;8.17;5.73;;;6.60;99.90;;;;;;7391402;19;20161;-73
2022/11/13 06:48:19;;;;;;;7.57;5.40;;;6.60;99.90;;;;;;7391955;19;20244;-74
2022/11/13 06:50:44;;;;;;;8.80;5.43;;;6.60;99.90;;;;;;7393294;19;20158;-74
2022/11/13 06:53:10;;;;;;;7.03;5.13;;;6.60;99.90;;;;;;7392400;19;20134;-75
2022/11/13 06:55:45;;;;;;;6.23;4.90;;;6.60;99.90;;;;;;7391077;19;20142;-74
2022/11/13 06:58:11;;;;;;;6.90;5.00;;;6.60;99.90;;;;;;7390761;19;20608;-74
2022/11/13 07:00:36;;;;;;;6.20;4.27;;;6.60;99.90;;;;;;7390458;19;20182;-75
2022/11/13 07:03:02;;;;;;;5.33;4.20;;;6.40;99.90;;;;;;7388631;19;20636;-73
2022/11/13 07:05:28;;;;;;;6.27;4.43;;;6.40;99.90;;;;;;7392177;19;20155;-75
2022/11/13 07:07:54;;;;;;;5.37;4.83;;;6.40;99.90;;;;;;7390328;19;20142;-74
2022/11/13 07:10:21;;;;;;;7.90;5.33;;;6.40;99.90;;;;;;7390668;19;20134;-75
2022/11/13 07:12:47;;;;;;;6.07;4.80;;;6.50;99.90;;;;;;7390602;19;20838;-74
2022/11/13 07:15:15;;;;;;;6.80;5.03;;;6.50;99.90;;;;;;7391133;19;20142;-74
2022/11/13 07:17:41;;;;;;;7.40;5.10;;;6.60;99.90;;;;;;7391584;19;20147;-73
2022/11/13 07:20:07;;;;;;;6.77;4.60;;;6.60;99.90;;;;;;7390611;19;20525;-75
2022/11/13 07:22:33;;;;;;;7.80;5.03;;;6.60;99.90;;;;;;7388972;19;20142;-75
2022/11/13 07:24:59;;;;;;;5.50;4.90;;;6.60;99.90;;;;;;7390906;19;20506;-74
2022/11/13 07:27:24;;;;;;;5.90;4.50;;;6.60;99.90;;;;;;7390133;19;20612;-72
2022/11/13 07:29:51;;;;;;;5.77;4.73;;;6.50;99.90;;;;;;7391605;19;20146;-75
2022/11/13 07:32:17;;;;;;;8.33;5.47;;;6.40;99.90;;;;;;7390364;19;20158;-73
2022/11/13 07:34:43;;;;;;;6.13;4.90;;;6.50;99.90;;;;;;7390992;19;20134;-73
2022/11/13 07:37:08;;;;;;;6.30;4.93;;;6.50;99.90;;;;;;7389344;19;20139;-73
2022/11/13 07:39:34;;;;;;;6.90;5.07;;;6.50;99.90;;;;;;7392976;19;20217;-74
2022/11/13 07:42:00;;;;;;;7.03;4.97;;;6.20;99.90;;;;;;7391282;19;20153;-75
2022/11/13 07:44:25;;;;;;;6.10;5.17;;;6.30;99.90;;;;;;7388360;19;20738;-73
2022/11/13 07:46:51;;;;;;;6.83;5.10;;;6.20;99.90;;;;;;7384221;19;20167;-73
2022/11/13 07:49:17;;;;;;;6.70;5.13;;;6.30;99.90;;;;;;7387556;19;20609;-74
2022/11/13 07:51:43;;;;;;;6.57;5.27;;;6.20;99.90;;;;;;7390981;19;20138;-75
2022/11/13 07:54:08;;;;;;;6.47;4.67;;;6.00;99.90;;;;;;7389334;19;20153;-72
2022/11/13 07:56:34;;;;;;;7.73;5.67;;;6.10;99.90;;;;;;7387288;19;20150;-73
2022/11/13 07:59:00;;;;;;;6.50;5.10;;;6.30;99.90;;;;;;7386508;19;20134;-75
2022/11/13 08:01:26;;;;;;;6.27;5.23;;;6.00;99.90;;;;;;7387418;19;20646;-74
2022/11/13 08:03:51;;;;;;;6.53;4.97;;;6.00;99.90;;;;;;7393445;19;20165;-73
2022/11/13 08:06:17;;;;;;;7.67;4.90;;;5.80;99.90;;;;;;7393149;19;20164;-73
2022/11/13 08:08:47;;;;;;;6.03;4.87;;;5.90;99.90;;;;;;7392011;19;20150;-73
2022/11/13 08:11:13;;;;;;;5.93;4.70;;;5.70;99.90;;;;;;7393868;19;20147;-72
2022/11/13 08:13:39;;;;;;;5.70;4.47;;;5.90;99.90;;;;;;7392832;19;20612;-73
2022/11/13 08:16:05;;;;;;;5.90;4.80;;;6.20;99.90;;;;;;7392256;19;20213;-73
2022/11/13 08:18:31;;;;;;;5.70;4.60;;;6.30;99.90;;;;;;7391353;19;20130;-73
2022/11/13 08:21:01;;;;;;;5.90;4.73;;;6.30;99.90;;;;;;7392308;19;20138;-74
2022/11/13 08:23:27;;;;;;;5.13;4.63;;;6.40;99.90;;;;;;7391436;19;20157;-73
2022/11/13 08:25:52;;;;;;;5.67;4.30;;;6.40;99.90;;;;;;7393290;19;20134;-73
2022/11/13 08:28:18;;;;;;;6.20;5.07;;;6.30;99.90;;;;;;7392915;19;20523;-74
2022/11/13 08:30:44;;;;;;;6.13;4.80;;;6.20;99.90;;;;;;7390355;19;20138;-74
2022/11/13 08:33:10;;;;;;;8.03;5.70;;;6.10;99.90;;;;;;7392799;19;20152;-73
2022/11/13 08:35:36;;;;;;;6.23;5.13;;;6.30;99.90;;;;;;7390976;19;20679;-72
2022/11/13 08:38:07;;;;;;;6.60;5.17;;;6.40;99.90;;;;;;7393019;19;20573;-73
2022/11/13 08:40:34;;;;;;;6.10;5.30;;;6.40;99.90;;;;;;7390792;19;20159;-73
2022/11/13 08:43:01;;;;;;;6.03;4.83;;;6.30;99.90;;;;;;7391094;19;20138;-73
2022/11/13 08:45:28;;;;;;;6.93;5.63;;;6.50;99.90;;;;;;7391703;19;20619;-74
2022/11/13 08:48:01;;;;;;;5.77;5.00;;;6.60;99.90;;;;;;7391457;19;20153;-73
2022/11/13 08:50:28;;;;;;;8.63;6.50;;;6.70;99.90;;;;;;7390659;19;20130;-74
2022/11/13 08:52:58;;;;;;;7.63;6.07;;;6.40;99.90;;;;;;7391283;19;20218;-74
2022/11/13 08:55:25;;;;;;;9.70;7.10;;;6.60;99.90;;;;;;7394139;19;20137;-73
2022/11/13 08:57:51;;;;;;;7.57;5.73;;;6.70;99.90;;;;;;7388877;19;20619;-74
2022/11/13 09:00:17;;;;;;;6.47;5.20;;;6.70;99.90;;;;;;7392523;19;20134;-73
2022/11/13 09:02:43;;;;;;;5.80;5.03;;;6.40;99.90;;;;;;7383814;19;20123;-74
2022/11/13 09:05:09;;;;;;;5.93;4.97;;;5.50;99.90;;;;;;7387419;19;20604;-74
2022/11/13 09:07:36;;;;;;;7.30;5.20;;;5.60;99.90;;;;;;7387465;19;20158;-73
2022/11/13 09:10:02;;;;;;;7.80;5.40;;;5.80;99.90;;;;;;7389390;19;20154;-72
2022/11/13 09:12:28;;;;;;;6.17;5.00;;;6.30;99.90;;;;;;7388225;19;20722;-73
2022/11/13 09:14:54;;;;;;;5.70;5.07;;;5.80;99.90;;;;;;7388364;19;20138;-73
2022/11/13 09:17:20;;;;;;;6.00;5.13;;;6.20;99.90;;;;;;7387651;19;20922;-73
2022/11/13 09:19:46;;;;;;;5.90;4.93;;;6.20;99.90;;;;;;7388713;19;20142;-72
2022/11/13 09:22:12;;;;;;;7.70;5.40;;;6.60;99.90;;;;;;7387302;19;20162;-72
2022/11/13 09:24:37;;;;;;;6.13;4.80;;;6.20;99.90;;;;;;7387545;19;20130;-71
2022/11/13 09:27:03;;;;;;;5.93;5.17;;;6.20;99.90;;;;;;7383512;19;20877;-72
2022/11/13 09:29:29;;;;;;;6.70;5.60;;;6.30;99.90;;;;;;7384117;19;20155;-73
2022/11/13 09:31:55;;;;;;;6.20;5.17;;;6.80;99.90;;;;;;7388239;19;20122;-71
2022/11/13 09:34:21;;;;;;;6.53;5.40;;;7.00;99.90;;;;;;7389190;19;20801;-75
2022/11/13 09:36:47;;;;;;;6.03;4.97;;;7.20;99.90;;;;;;7387209;19;20597;-72
2022/11/13 09:39:13;;;;;;;6.57;4.73;;;7.30;99.90;;;;;;7389988;19;20145;-71
2022/11/13 09:42:16;;;;;;;5.27;4.77;;;7.30;99.90;;;;;;7386753;19;20134;-73
2022/11/13 09:44:58;;;;;;;5.57;4.77;;;6.30;99.90;;;;;;7388618;19;20225;-73
2022/11/13 09:47:29;;;;;;;7.40;5.20;;;6.10;99.90;;;;;;7386450;19;20517;-73
2022/11/13 09:50:13;;;;;;;6.73;4.97;;;6.60;99.90;;;;;;7387518;19;20302;-74
2022/11/13 09:52:42;;;;;;;7.17;5.17;;;6.30;99.90;;;;;;7387142;19;20142;-75
2022/11/13 09:55:14;;;;;;;5.73;5.13;;;6.50;99.90;;;;;;7384867;19;20254;-72
2022/11/13 09:57:44;;;;;;;6.97;5.43;;;6.80;99.90;;;;;;7381345;19;20178;-73
2022/11/13 10:00:14;;;;;;;7.63;6.27;;;7.10;99.90;;;;;;7386330;19;20139;-74
2022/11/13 10:03:13;;;;;;;6.37;5.47;;;7.20;99.90;;;;;;7382117;19;20184;-72
2022/11/13 10:05:59;;;;;;;6.30;5.23;;;7.10;99.90;;;;;;7387836;19;20895;-71
2022/11/13 10:08:51;;;;;;;7.73;5.73;;;7.00;99.90;;;;;;7384754;19;20248;-72
2022/11/13 10:11:37;;;;;;;7.47;5.93;;;7.30;99.90;;;;;;7393431;19;20143;-73
2022/11/13 10:14:19;;;;;;;6.60;5.40;;;7.50;99.90;;;;;;7392151;19;20165;-73
2022/11/13 10:17:05;;;;;;;7.33;5.33;;;7.20;99.90;;;;;;7392049;19;20135;-75
2022/11/13 10:20:03;;;;;;;6.73;5.67;;;7.40;99.90;;;;;;7394579;19;20172;-72
2022/11/13 10:22:35;;;;;;;6.70;5.40;;;7.70;99.90;;;;;;7393161;19;20139;-74
2022/11/13 10:25:18;;;;;;;7.47;5.43;;;7.70;99.90;;;;;;7394616;19;20210;-72
2022/11/13 10:27:58;;;;;;;7.07;5.63;;;7.50;99.90;;;;;;7389729;19;20135;-71
2022/11/13 10:30:24;;;;;;;7.23;5.97;;;7.70;99.90;;;;;;7389394;19;20604;-73
2022/11/13 10:32:50;;;;;;;6.70;5.73;;;7.80;99.90;;;;;;7387310;19;20146;-73
2022/11/13 10:35:35;;;;;;;7.37;6.07;;;8.00;99.90;;;;;;7390137;19;20174;-73
2022/11/13 10:38:08;;;;;;;7.03;5.37;;;8.10;99.90;;;;;;7389718;19;20157;-72
2022/11/13 10:40:37;;;;;;;9.00;6.00;;;8.20;99.90;;;;;;7389319;19;20139;-72
2022/11/13 10:43:18;;;;;;;7.57;5.73;;;8.00;99.90;;;;;;7388925;19;20157;-72
2022/11/13 10:46:00;;;;;;;7.50;5.80;;;7.90;99.90;;;;;;7389959;19;20664;-74
2022/11/13 10:48:29;;;;;;;8.00;5.97;;;8.20;99.90;;;;;;7387844;19;20157;-72
2022/11/13 10:51:01;;;;;;;8.80;6.50;;;7.90;99.90;;;;;;7389828;19;20680;-73
2022/11/13 10:53:39;;;;;;;6.53;5.20;;;8.10;99.90;;;;;;7390104;19;20474;-71
2022/11/13 10:56:28;;;;;;;6.33;5.73;;;8.00;99.90;;;;;;7392354;19;20126;-73
2022/11/13 10:59:17;;;;;;;7.33;5.73;;;8.30;99.90;;;;;;7389915;19;20466;-73
2022/11/13 11:01:45;;;;;;;8.40;5.63;;;8.20;99.90;;;;;;7390971;19;20134;-72
2022/11/13 11:04:21;;;;;;;7.63;5.73;;;8.10;99.90;;;;;;7389578;19;20146;-73
2022/11/13 11:06:46;;;;;;;6.77;5.70;;;8.30;99.90;;;;;;7390550;19;20138;-73
2022/11/13 11:09:12;;;;;;;7.67;6.03;;;8.60;99.90;;;;;;7391681;19;20478;-74
2022/11/13 11:14:42;;;;;;;8.40;5.90;;;7.90;99.90;;;;;;7387591;19;20226;-72
2022/11/13 11:17:11;;;;;;;7.33;6.17;;;8.40;99.90;;;;;;7389647;19;20135;-71
2022/11/13 11:19:39;;;;;;;9.23;6.67;;;8.70;99.90;;;;;;7389669;19;20145;-73
2022/11/13 11:22:23;;;;;;;10.33;6.03;;;9.00;99.90;;;;;;7386050;19;20154;-73
2022/11/13 11:25:04;;;;;;;7.60;6.17;;;9.00;99.90;;;;;;7388876;19;20141;-71
2022/11/13 11:27:46;;;;;;;8.03;6.10;;;8.80;99.90;;;;;;7387545;19;20157;-72
2022/11/13 11:30:22;;;;;;;8.93;6.53;;;9.10;99.90;;;;;;7388535;19;20150;-73
2022/11/13 11:33:19;;;;;;;7.33;6.20;;;9.30;99.90;;;;;;7388928;19;20505;-74
2022/11/13 11:35:51;;;;;;;8.00;6.83;;;9.30;99.90;;;;;;7386996;19;20139;-73
2022/11/13 11:38:32;;;;;;;9.27;6.17;;;9.60;99.90;;;;;;7387112;19;20138;-72
2022/11/13 11:41:09;;;;;;;8.73;6.70;;;9.70;99.90;;;;;;7389891;19;20138;-73
2022/11/13 11:43:50;;;;;;;7.70;5.83;;;9.80;99.90;;;;;;7387643;19;20141;-73
2022/11/13 11:46:22;;;;;;;7.83;6.13;;;9.80;99.90;;;;;;7387918;19;20130;-74
2022/11/13 11:48:49;;;;;;;9.17;6.40;;;9.90;99.90;;;;;;7387733;19;20143;-74
2022/11/13 11:51:25;;;;;;;7.33;5.80;;;10.10;99.90;;;;;;7392252;19;20143;-72
2022/11/13 11:53:54;;;;;;;7.97;6.27;;;10.00;99.90;;;;;;7391212;19;20138;-73
2022/11/13 11:56:19;;;;;;;6.53;5.80;;;10.10;99.90;;;;;;7392358;19;20249;-73
2022/11/13 11:59:10;;;;;;;9.00;6.33;;;10.30;99.90;;;;;;7388660;19;20766;-72
2022/11/13 12:01:44;;;;;;;6.53;5.57;;;10.40;99.90;;;;;;7389073;19;20223;-73
2022/11/13 12:04:22;;;;;;;9.57;6.33;;;10.60;99.90;;;;;;7390903;19;20142;-72
2022/11/13 12:07:10;;;;;;;8.20;6.27;;;10.70;99.90;;;;;;7390360;19;20145;-72
2022/11/13 12:09:43;;;;;;;7.40;5.90;;;10.60;99.90;;;;;;7389040;19;20138;-72
2022/11/13 12:12:24;;;;;;;8.40;6.40;;;10.60;99.90;;;;;;7389810;19;20139;-72
2022/11/13 12:15:16;;;;;;;7.37;5.73;;;10.60;99.90;;;;;;7389314;19;20142;-72
2022/11/13 12:17:54;;;;;;;7.60;5.87;;;10.70;99.90;;;;;;7386571;19;20142;-73
2022/11/13 12:20:53;;;;;;;7.63;6.10;;;10.80;99.90;;;;;;7391268;19;20142;-72
2022/11/13 12:23:22;;;;;;;8.97;5.90;;;10.80;99.90;;;;;;7388512;19;20597;-73
2022/11/13 12:25:58;;;;;;;9.57;6.07;;;11.00;99.90;;;;;;7391629;19;20153;-72
2022/11/13 12:28:36;;;;;;;10.87;6.20;;;11.00;99.90;;;;;;7390708;19;20171;-73
2022/11/13 12:31:38;;;;;;;7.70;5.87;;;11.00;99.90;;;;;;7391567;19;20600;-72
2022/11/13 12:34:28;;;;;;;8.03;6.17;;;11.10;99.90;;;;;;7389093;19;20141;-73
2022/11/13 12:36:54;;;;;;;9.43;6.47;;;11.00;99.90;;;;;;7388184;19;20170;-73
2022/11/13 12:39:51;;;;;;;9.00;6.87;;;11.10;99.90;;;;;;7390988;19;20656;-73
2022/11/13 12:42:49;;;;;;;8.37;6.60;;;11.20;99.90;;;;;;7389315;19;20153;-74
2022/11/13 12:45:31;;;;;;;7.93;6.40;;;11.10;99.90;;;;;;7390257;19;20961;-73
2022/11/13 12:48:28;;;;;;;7.47;6.13;;;11.20;99.90;;;;;;7391172;19;20502;-73
2022/11/13 12:51:00;;;;;;;7.63;6.30;;;11.40;99.90;;;;;;7388875;19;20166;-73
2022/11/13 12:53:41;;;;;;;7.23;6.00;;;11.50;99.90;;;;;;7388686;19;20135;-74
2022/11/13 12:56:33;;;;;;;7.33;6.07;;;11.50;99.90;;;;;;7388505;19;20146;-72
2022/11/13 12:59:16;;;;;;;11.63;8.40;;;11.50;99.90;;;;;;7384663;19;20154;-73
2022/11/13 13:02:15;;;;;;;9.77;6.80;;;11.50;99.90;;;;;;7389408;19;20134;-73
2022/11/13 13:04:43;;;;;;;7.63;6.10;;;11.60;99.90;;;;;;7386241;19;20221;-72
2022/11/13 13:07:21;;;;;;;8.60;6.43;;;11.50;99.90;;;;;;7388647;19;20770;-72
2022/11/13 13:10:06;;;;;;;8.83;6.20;;;11.70;99.90;;;;;;7389421;19;20134;-73
2022/11/13 13:12:38;;;;;;;8.90;6.20;;;11.70;99.90;;;;;;7387139;19;20135;-73
2022/11/13 13:15:16;;;;;;;8.17;6.30;;;11.60;99.90;;;;;;7389186;19;20142;-74